sensor_id;sensor_type;location;lat;lon;timestamp;P1;durP1;ratioP1;P2;durP2;ratioP2
38240;SDS011;24037;49.536;8.500;2023-05-07T00:02:02;2.90;;;2.03;;
38240;SDS011;24037;49.536;8.500;2023-05-07T00:04:29;3.47;;;2.38;;
38240;SDS011;24037;49.536;8.500;2023-05-07T00:07:01;4.38;;;1.90;;
38240;SDS011;24037;49.536;8.500;2023-05-07T00:09:28;3.58;;;1.92;;
38240;SDS011;24037;49.536;8.500;2023-05-07T00:11:54;4.18;;;1.77;;
38240;SDS011;24037;49.536;8.500;2023-05-07T00:14:20;2.85;;;1.60;;
38240;SDS011;24037;49.536;8.500;2023-05-07T00:16:46;2.55;;;2.17;;
38240;SDS011;24037;49.536;8.500;2023-05-07T00:19:13;4.25;;;2.08;;
38240;SDS011;24037;49.536;8.500;2023-05-07T00:21:39;3.17;;;1.98;;
38240;SDS011;24037;49.536;8.500;2023-05-07T00:24:05;6.03;;;2.33;;
38240;SDS011;24037;49.536;8.500;2023-05-07T00:26:31;5.03;;;1.92;;
38240;SDS011;24037;49.536;8.500;2023-05-07T00:28:58;3.00;;;1.83;;
38240;SDS011;24037;49.536;8.500;2023-05-07T00:31:24;4.43;;;1.85;;
38240;SDS011;24037;49.536;8.500;2023-05-07T00:33:50;6.13;;;2.38;;
38240;SDS011;24037;49.536;8.500;2023-05-07T00:36:16;6.30;;;2.75;;
38240;SDS011;24037;49.536;8.500;2023-05-07T00:38:43;4.10;;;2.33;;
38240;SDS011;24037;49.536;8.500;2023-05-07T00:41:09;2.58;;;2.00;;
38240;SDS011;24037;49.536;8.500;2023-05-07T00:43:35;6.10;;;2.60;;
38240;SDS011;24037;49.536;8.500;2023-05-07T00:46:01;6.05;;;2.50;;
38240;SDS011;24037;49.536;8.500;2023-05-07T00:48:28;3.90;;;2.00;;
38240;SDS011;24037;49.536;8.500;2023-05-07T00:50:54;3.47;;;2.20;;
38240;SDS011;24037;49.536;8.500;2023-05-07T00:53:20;3.20;;;2.28;;
38240;SDS011;24037;49.536;8.500;2023-05-07T00:55:47;5.75;;;2.90;;
38240;SDS011;24037;49.536;8.500;2023-05-07T00:58:14;5.32;;;2.22;;
38240;SDS011;24037;49.536;8.500;2023-05-07T01:00:42;8.07;;;3.35;;
38240;SDS011;24037;49.536;8.500;2023-05-07T01:03:08;5.45;;;2.33;;
38240;SDS011;24037;49.536;8.500;2023-05-07T01:05:35;3.58;;;2.38;;
38240;SDS011;24037;49.536;8.500;2023-05-07T01:08:01;3.78;;;2.40;;
38240;SDS011;24037;49.536;8.500;2023-05-07T01:10:30;2.88;;;2.10;;
38240;SDS011;24037;49.536;8.500;2023-05-07T01:12:57;4.93;;;2.60;;
38240;SDS011;24037;49.536;8.500;2023-05-07T01:15:25;2.97;;;2.22;;
38240;SDS011;24037;49.536;8.500;2023-05-07T01:17:51;3.83;;;2.25;;
38240;SDS011;24037;49.536;8.500;2023-05-07T01:20:24;3.92;;;2.20;;
38240;SDS011;24037;49.536;8.500;2023-05-07T01:22:53;4.95;;;2.40;;
38240;SDS011;24037;49.536;8.500;2023-05-07T01:25:20;3.75;;;3.17;;
38240;SDS011;24037;49.536;8.500;2023-05-07T01:30:19;2.08;;;1.88;;
38240;SDS011;24037;49.536;8.500;2023-05-07T01:32:57;6.38;;;2.55;;
38240;SDS011;24037;49.536;8.500;2023-05-07T01:35:41;4.88;;;2.33;;
38240;SDS011;24037;49.536;8.500;2023-05-07T01:38:11;3.58;;;2.60;;
38240;SDS011;24037;49.536;8.500;2023-05-07T01:40:37;3.08;;;2.28;;
38240;SDS011;24037;49.536;8.500;2023-05-07T01:43:04;6.60;;;3.00;;
38240;SDS011;24037;49.536;8.500;2023-05-07T01:45:33;5.95;;;3.08;;
38240;SDS011;24037;49.536;8.500;2023-05-07T01:48:01;4.13;;;2.50;;
38240;SDS011;24037;49.536;8.500;2023-05-07T01:50:28;4.63;;;2.60;;
38240;SDS011;24037;49.536;8.500;2023-05-07T01:52:56;6.85;;;3.15;;
38240;SDS011;24037;49.536;8.500;2023-05-07T01:55:23;6.43;;;2.90;;
38240;SDS011;24037;49.536;8.500;2023-05-07T01:57:49;4.03;;;2.70;;
38240;SDS011;24037;49.536;8.500;2023-05-07T02:00:16;5.43;;;3.38;;
38240;SDS011;24037;49.536;8.500;2023-05-07T02:02:44;5.15;;;3.00;;
38240;SDS011;24037;49.536;8.500;2023-05-07T02:05:21;5.72;;;2.65;;
38240;SDS011;24037;49.536;8.500;2023-05-07T02:07:55;3.85;;;2.72;;
38240;SDS011;24037;49.536;8.500;2023-05-07T02:10:21;4.85;;;2.78;;
38240;SDS011;24037;49.536;8.500;2023-05-07T02:12:48;5.53;;;2.92;;
38240;SDS011;24037;49.536;8.500;2023-05-07T02:15:14;3.75;;;2.65;;
38240;SDS011;24037;49.536;8.500;2023-05-07T02:17:57;3.53;;;2.70;;
38240;SDS011;24037;49.536;8.500;2023-05-07T02:20:32;5.05;;;3.05;;
38240;SDS011;24037;49.536;8.500;2023-05-07T02:22:58;3.33;;;2.30;;
38240;SDS011;24037;49.536;8.500;2023-05-07T02:25:28;3.43;;;2.23;;
38240;SDS011;24037;49.536;8.500;2023-05-07T02:27:55;8.90;;;3.42;;
38240;SDS011;24037;49.536;8.500;2023-05-07T02:30:29;5.75;;;3.33;;
38240;SDS011;24037;49.536;8.500;2023-05-07T02:32:57;5.05;;;2.95;;
38240;SDS011;24037;49.536;8.500;2023-05-07T02:35:24;3.28;;;2.40;;
38240;SDS011;24037;49.536;8.500;2023-05-07T02:37:51;3.97;;;2.88;;
38240;SDS011;24037;49.536;8.500;2023-05-07T02:40:18;5.68;;;3.58;;
38240;SDS011;24037;49.536;8.500;2023-05-07T02:42:44;4.30;;;3.25;;
38240;SDS011;24037;49.536;8.500;2023-05-07T02:45:11;4.75;;;3.03;;
38240;SDS011;24037;49.536;8.500;2023-05-07T02:47:38;7.90;;;3.58;;
38240;SDS011;24037;49.536;8.500;2023-05-07T02:50:04;6.70;;;3.10;;
38240;SDS011;24037;49.536;8.500;2023-05-07T02:52:31;3.85;;;2.75;;
38240;SDS011;24037;49.536;8.500;2023-05-07T02:54:58;4.90;;;3.05;;
38240;SDS011;24037;49.536;8.500;2023-05-07T02:57:24;4.03;;;2.42;;
38240;SDS011;24037;49.536;8.500;2023-05-07T02:59:50;5.00;;;3.03;;
38240;SDS011;24037;49.536;8.500;2023-05-07T03:02:18;4.15;;;2.78;;
38240;SDS011;24037;49.536;8.500;2023-05-07T03:04:45;6.78;;;3.95;;
38240;SDS011;24037;49.536;8.500;2023-05-07T03:07:12;6.15;;;4.18;;
38240;SDS011;24037;49.536;8.500;2023-05-07T03:09:38;6.25;;;3.10;;
38240;SDS011;24037;49.536;8.500;2023-05-07T03:12:05;5.25;;;3.15;;
38240;SDS011;24037;49.536;8.500;2023-05-07T03:14:31;4.60;;;3.40;;
38240;SDS011;24037;49.536;8.500;2023-05-07T03:16:57;4.45;;;3.40;;
38240;SDS011;24037;49.536;8.500;2023-05-07T03:19:24;6.05;;;3.17;;
38240;SDS011;24037;49.536;8.500;2023-05-07T03:21:50;4.75;;;3.45;;
38240;SDS011;24037;49.536;8.500;2023-05-07T03:24:16;4.95;;;3.03;;
38240;SDS011;24037;49.536;8.500;2023-05-07T03:26:43;5.78;;;3.50;;
38240;SDS011;24037;49.536;8.500;2023-05-07T03:29:09;4.75;;;3.78;;
38240;SDS011;24037;49.536;8.500;2023-05-07T03:31:35;5.68;;;3.75;;
38240;SDS011;24037;49.536;8.500;2023-05-07T03:34:01;5.07;;;4.05;;
38240;SDS011;24037;49.536;8.500;2023-05-07T03:36:28;5.65;;;3.70;;
38240;SDS011;24037;49.536;8.500;2023-05-07T03:38:55;7.35;;;4.40;;
38240;SDS011;24037;49.536;8.500;2023-05-07T03:41:25;5.15;;;3.88;;
38240;SDS011;24037;49.536;8.500;2023-05-07T03:43:51;5.18;;;3.80;;
38240;SDS011;24037;49.536;8.500;2023-05-07T03:46:18;6.20;;;3.72;;
38240;SDS011;24037;49.536;8.500;2023-05-07T03:48:44;6.05;;;3.50;;
38240;SDS011;24037;49.536;8.500;2023-05-07T03:51:13;4.97;;;3.40;;
38240;SDS011;24037;49.536;8.500;2023-05-07T03:53:39;5.00;;;3.83;;
38240;SDS011;24037;49.536;8.500;2023-05-07T03:56:06;5.78;;;3.63;;
38240;SDS011;24037;49.536;8.500;2023-05-07T03:58:36;5.72;;;3.65;;
38240;SDS011;24037;49.536;8.500;2023-05-07T04:01:07;8.63;;;3.92;;
38240;SDS011;24037;49.536;8.500;2023-05-07T04:03:33;5.72;;;3.80;;
38240;SDS011;24037;49.536;8.500;2023-05-07T04:06:00;6.63;;;5.10;;
38240;SDS011;24037;49.536;8.500;2023-05-07T04:08:26;5.07;;;3.50;;
38240;SDS011;24037;49.536;8.500;2023-05-07T04:10:54;4.43;;;3.45;;
38240;SDS011;24037;49.536;8.500;2023-05-07T04:13:22;7.20;;;3.38;;
38240;SDS011;24037;49.536;8.500;2023-05-07T04:15:48;6.00;;;3.80;;
38240;SDS011;24037;49.536;8.500;2023-05-07T04:18:17;6.07;;;4.45;;
38240;SDS011;24037;49.536;8.500;2023-05-07T04:20:45;18.83;;;11.95;;
38240;SDS011;24037;49.536;8.500;2023-05-07T04:23:14;12.32;;;6.68;;
38240;SDS011;24037;49.536;8.500;2023-05-07T04:25:40;7.32;;;4.20;;
38240;SDS011;24037;49.536;8.500;2023-05-07T04:28:21;5.28;;;3.42;;
38240;SDS011;24037;49.536;8.500;2023-05-07T04:30:48;6.13;;;3.90;;
38240;SDS011;24037;49.536;8.500;2023-05-07T04:33:15;7.90;;;3.78;;
38240;SDS011;24037;49.536;8.500;2023-05-07T04:35:45;4.95;;;3.05;;
38240;SDS011;24037;49.536;8.500;2023-05-07T04:38:11;5.00;;;3.40;;
38240;SDS011;24037;49.536;8.500;2023-05-07T04:40:38;7.05;;;3.65;;
38240;SDS011;24037;49.536;8.500;2023-05-07T04:43:06;7.80;;;3.38;;
38240;SDS011;24037;49.536;8.500;2023-05-07T04:45:39;5.03;;;2.55;;
38240;SDS011;24037;49.536;8.500;2023-05-07T04:48:08;3.92;;;3.03;;
38240;SDS011;24037;49.536;8.500;2023-05-07T04:50:36;3.10;;;2.67;;
38240;SDS011;24037;49.536;8.500;2023-05-07T04:53:03;5.38;;;2.45;;
38240;SDS011;24037;49.536;8.500;2023-05-07T04:55:30;3.25;;;2.10;;
38240;SDS011;24037;49.536;8.500;2023-05-07T04:57:56;3.63;;;2.70;;
38240;SDS011;24037;49.536;8.500;2023-05-07T05:00:23;5.43;;;2.65;;
38240;SDS011;24037;49.536;8.500;2023-05-07T05:02:52;4.72;;;2.53;;
38240;SDS011;24037;49.536;8.500;2023-05-07T05:05:20;4.53;;;3.15;;
38240;SDS011;24037;49.536;8.500;2023-05-07T05:07:49;4.97;;;3.08;;
38240;SDS011;24037;49.536;8.500;2023-05-07T05:10:17;4.00;;;3.05;;
38240;SDS011;24037;49.536;8.500;2023-05-07T05:12:43;7.68;;;3.28;;
38240;SDS011;24037;49.536;8.500;2023-05-07T05:15:11;4.55;;;2.90;;
38240;SDS011;24037;49.536;8.500;2023-05-07T05:17:38;6.80;;;3.30;;
38240;SDS011;24037;49.536;8.500;2023-05-07T05:20:05;3.63;;;2.60;;
38240;SDS011;24037;49.536;8.500;2023-05-07T05:22:33;4.07;;;2.50;;
38240;SDS011;24037;49.536;8.500;2023-05-07T05:25:00;7.30;;;4.13;;
38240;SDS011;24037;49.536;8.500;2023-05-07T05:27:27;7.93;;;5.60;;
38240;SDS011;24037;49.536;8.500;2023-05-07T05:29:54;6.35;;;3.45;;
38240;SDS011;24037;49.536;8.500;2023-05-07T05:32:20;4.97;;;4.00;;
38240;SDS011;24037;49.536;8.500;2023-05-07T05:34:47;4.68;;;2.35;;
38240;SDS011;24037;49.536;8.500;2023-05-07T05:37:14;7.05;;;3.10;;
38240;SDS011;24037;49.536;8.500;2023-05-07T05:39:41;4.72;;;2.78;;
38240;SDS011;24037;49.536;8.500;2023-05-07T05:42:10;4.80;;;3.33;;
38240;SDS011;24037;49.536;8.500;2023-05-07T05:44:36;6.70;;;3.15;;
38240;SDS011;24037;49.536;8.500;2023-05-07T05:47:02;5.43;;;3.05;;
38240;SDS011;24037;49.536;8.500;2023-05-07T05:49:29;6.28;;;3.33;;
38240;SDS011;24037;49.536;8.500;2023-05-07T05:51:56;4.75;;;3.28;;
38240;SDS011;24037;49.536;8.500;2023-05-07T05:54:24;4.65;;;3.08;;
38240;SDS011;24037;49.536;8.500;2023-05-07T05:56:50;3.83;;;2.72;;
38240;SDS011;24037;49.536;8.500;2023-05-07T05:59:16;5.30;;;3.30;;
38240;SDS011;24037;49.536;8.500;2023-05-07T06:01:43;4.53;;;3.03;;
38240;SDS011;24037;49.536;8.500;2023-05-07T06:04:09;3.45;;;3.05;;
38240;SDS011;24037;49.536;8.500;2023-05-07T06:06:35;4.72;;;2.63;;
38240;SDS011;24037;49.536;8.500;2023-05-07T06:09:02;6.72;;;2.85;;
38240;SDS011;24037;49.536;8.500;2023-05-07T06:11:35;4.78;;;2.92;;
38240;SDS011;24037;49.536;8.500;2023-05-07T06:14:02;3.75;;;2.35;;
38240;SDS011;24037;49.536;8.500;2023-05-07T06:16:29;4.13;;;2.03;;
38240;SDS011;24037;49.536;8.500;2023-05-07T06:18:56;3.75;;;2.28;;
38240;SDS011;24037;49.536;8.500;2023-05-07T06:21:23;5.30;;;2.33;;
38240;SDS011;24037;49.536;8.500;2023-05-07T06:23:52;3.15;;;2.28;;
38240;SDS011;24037;49.536;8.500;2023-05-07T06:26:20;4.22;;;1.70;;
38240;SDS011;24037;49.536;8.500;2023-05-07T06:28:47;3.03;;;2.40;;
38240;SDS011;24037;49.536;8.500;2023-05-07T06:31:16;5.15;;;2.67;;
38240;SDS011;24037;49.536;8.500;2023-05-07T06:33:51;8.90;;;3.75;;
38240;SDS011;24037;49.536;8.500;2023-05-07T06:36:18;7.18;;;4.47;;
38240;SDS011;24037;49.536;8.500;2023-05-07T06:38:45;3.03;;;1.75;;
38240;SDS011;24037;49.536;8.500;2023-05-07T06:41:12;4.28;;;1.67;;
38240;SDS011;24037;49.536;8.500;2023-05-07T06:43:40;4.68;;;1.95;;
38240;SDS011;24037;49.536;8.500;2023-05-07T06:46:29;2.78;;;1.25;;
38240;SDS011;24037;49.536;8.500;2023-05-07T06:48:56;4.30;;;1.98;;
38240;SDS011;24037;49.536;8.500;2023-05-07T06:51:23;7.15;;;3.05;;
38240;SDS011;24037;49.536;8.500;2023-05-07T06:53:49;2.97;;;1.63;;
38240;SDS011;24037;49.536;8.500;2023-05-07T06:56:15;2.22;;;1.40;;
38240;SDS011;24037;49.536;8.500;2023-05-07T06:58:42;3.22;;;1.90;;
38240;SDS011;24037;49.536;8.500;2023-05-07T07:01:09;2.53;;;1.85;;
38240;SDS011;24037;49.536;8.500;2023-05-07T07:03:37;3.05;;;1.48;;
38240;SDS011;24037;49.536;8.500;2023-05-07T07:06:03;3.05;;;1.92;;
38240;SDS011;24037;49.536;8.500;2023-05-07T07:08:30;5.45;;;1.77;;
38240;SDS011;24037;49.536;8.500;2023-05-07T07:10:56;2.47;;;1.75;;
38240;SDS011;24037;49.536;8.500;2023-05-07T07:13:23;3.47;;;1.70;;
38240;SDS011;24037;49.536;8.500;2023-05-07T07:15:49;2.50;;;1.30;;
38240;SDS011;24037;49.536;8.500;2023-05-07T07:18:17;10.55;;;1.75;;
38240;SDS011;24037;49.536;8.500;2023-05-07T07:20:44;3.45;;;2.08;;
38240;SDS011;24037;49.536;8.500;2023-05-07T07:23:11;5.13;;;1.80;;
38240;SDS011;24037;49.536;8.500;2023-05-07T07:25:37;5.03;;;1.60;;
38240;SDS011;24037;49.536;8.500;2023-05-07T07:28:03;3.20;;;1.75;;
38240;SDS011;24037;49.536;8.500;2023-05-07T07:30:30;3.58;;;1.98;;
38240;SDS011;24037;49.536;8.500;2023-05-07T07:32:57;3.45;;;2.25;;
38240;SDS011;24037;49.536;8.500;2023-05-07T07:35:29;2.55;;;1.75;;
38240;SDS011;24037;49.536;8.500;2023-05-07T07:37:56;3.00;;;1.67;;
38240;SDS011;24037;49.536;8.500;2023-05-07T07:40:22;7.72;;;2.90;;
38240;SDS011;24037;49.536;8.500;2023-05-07T07:42:48;3.55;;;2.47;;
38240;SDS011;24037;49.536;8.500;2023-05-07T07:45:15;2.65;;;1.50;;
38240;SDS011;24037;49.536;8.500;2023-05-07T07:47:45;6.05;;;1.80;;
38240;SDS011;24037;49.536;8.500;2023-05-07T07:50:12;3.85;;;1.83;;
38240;SDS011;24037;49.536;8.500;2023-05-07T07:52:39;2.97;;;1.90;;
38240;SDS011;24037;49.536;8.500;2023-05-07T07:55:07;4.70;;;1.55;;
38240;SDS011;24037;49.536;8.500;2023-05-07T07:57:34;2.65;;;1.50;;
38240;SDS011;24037;49.536;8.500;2023-05-07T08:00:00;3.35;;;1.70;;
38240;SDS011;24037;49.536;8.500;2023-05-07T08:02:30;9.48;;;1.83;;
38240;SDS011;24037;49.536;8.500;2023-05-07T08:04:58;4.55;;;1.52;;
38240;SDS011;24037;49.536;8.500;2023-05-07T08:07:24;3.55;;;1.48;;
38240;SDS011;24037;49.536;8.500;2023-05-07T08:09:50;2.47;;;1.60;;
38240;SDS011;24037;49.536;8.500;2023-05-07T08:12:22;2.00;;;1.55;;
38240;SDS011;24037;49.536;8.500;2023-05-07T08:14:48;2.63;;;1.88;;
38240;SDS011;24037;49.536;8.500;2023-05-07T08:17:14;3.85;;;1.75;;
38240;SDS011;24037;49.536;8.500;2023-05-07T08:19:42;3.03;;;1.65;;
38240;SDS011;24037;49.536;8.500;2023-05-07T08:22:11;2.75;;;2.00;;
38240;SDS011;24037;49.536;8.500;2023-05-07T08:24:38;3.30;;;1.67;;
38240;SDS011;24037;49.536;8.500;2023-05-07T08:27:04;7.20;;;1.77;;
38240;SDS011;24037;49.536;8.500;2023-05-07T08:29:31;4.43;;;1.60;;
38240;SDS011;24037;49.536;8.500;2023-05-07T08:31:59;3.45;;;1.67;;
38240;SDS011;24037;49.536;8.500;2023-05-07T08:34:25;4.18;;;1.50;;
38240;SDS011;24037;49.536;8.500;2023-05-07T08:36:52;2.58;;;1.70;;
38240;SDS011;24037;49.536;8.500;2023-05-07T08:39:21;5.78;;;1.45;;
38240;SDS011;24037;49.536;8.500;2023-05-07T08:41:50;4.97;;;1.58;;
38240;SDS011;24037;49.536;8.500;2023-05-07T08:44:22;3.50;;;1.60;;
38240;SDS011;24037;49.536;8.500;2023-05-07T08:46:50;3.28;;;1.90;;
38240;SDS011;24037;49.536;8.500;2023-05-07T08:49:20;2.95;;;1.70;;
38240;SDS011;24037;49.536;8.500;2023-05-07T08:51:46;4.50;;;1.70;;
38240;SDS011;24037;49.536;8.500;2023-05-07T08:54:15;3.25;;;1.70;;
38240;SDS011;24037;49.536;8.500;2023-05-07T08:56:42;3.95;;;1.90;;
38240;SDS011;24037;49.536;8.500;2023-05-07T08:59:08;2.53;;;1.30;;
38240;SDS011;24037;49.536;8.500;2023-05-07T09:01:34;2.88;;;2.10;;
38240;SDS011;24037;49.536;8.500;2023-05-07T09:04:01;5.65;;;1.38;;
38240;SDS011;24037;49.536;8.500;2023-05-07T09:06:29;2.80;;;1.52;;
38240;SDS011;24037;49.536;8.500;2023-05-07T09:08:56;1.90;;;1.40;;
38240;SDS011;24037;49.536;8.500;2023-05-07T09:11:27;3.95;;;1.60;;
38240;SDS011;24037;49.536;8.500;2023-05-07T09:13:57;3.53;;;1.50;;
38240;SDS011;24037;49.536;8.500;2023-05-07T09:16:25;3.90;;;1.20;;
38240;SDS011;24037;49.536;8.500;2023-05-07T09:18:52;3.88;;;1.42;;
38240;SDS011;24037;49.536;8.500;2023-05-07T09:21:21;2.30;;;1.10;;
38240;SDS011;24037;49.536;8.500;2023-05-07T09:23:51;3.37;;;1.33;;
38240;SDS011;24037;49.536;8.500;2023-05-07T09:26:23;1.93;;;0.93;;
38240;SDS011;24037;49.536;8.500;2023-05-07T09:31:17;2.47;;;1.52;;
38240;SDS011;24037;49.536;8.500;2023-05-07T09:33:43;2.55;;;1.45;;
38240;SDS011;24037;49.536;8.500;2023-05-07T09:36:13;2.50;;;1.05;;
38240;SDS011;24037;49.536;8.500;2023-05-07T09:38:41;5.43;;;1.30;;
38240;SDS011;24037;49.536;8.500;2023-05-07T09:41:08;1.58;;;1.02;;
38240;SDS011;24037;49.536;8.500;2023-05-07T09:43:58;2.55;;;0.80;;
38240;SDS011;24037;49.536;8.500;2023-05-07T09:46:30;3.88;;;1.10;;
38240;SDS011;24037;49.536;8.500;2023-05-07T09:49:02;2.00;;;1.10;;
38240;SDS011;24037;49.536;8.500;2023-05-07T09:51:35;4.20;;;1.65;;
38240;SDS011;24037;49.536;8.500;2023-05-07T09:54:07;1.92;;;1.20;;
38240;SDS011;24037;49.536;8.500;2023-05-07T09:56:36;3.15;;;1.38;;
38240;SDS011;24037;49.536;8.500;2023-05-07T09:59:04;2.33;;;1.38;;
38240;SDS011;24037;49.536;8.500;2023-05-07T10:01:32;3.22;;;1.23;;
38240;SDS011;24037;49.536;8.500;2023-05-07T10:04:02;1.33;;;0.73;;
38240;SDS011;24037;49.536;8.500;2023-05-07T10:06:30;1.27;;;1.00;;
38240;SDS011;24037;49.536;8.500;2023-05-07T10:08:58;2.95;;;1.13;;
38240;SDS011;24037;49.536;8.500;2023-05-07T10:11:25;1.20;;;0.75;;
38240;SDS011;24037;49.536;8.500;2023-05-07T10:13:52;2.88;;;1.10;;
38240;SDS011;24037;49.536;8.500;2023-05-07T10:16:19;3.30;;;1.17;;
38240;SDS011;24037;49.536;8.500;2023-05-07T10:18:48;2.97;;;1.25;;
38240;SDS011;24037;49.536;8.500;2023-05-07T10:21:20;1.80;;;0.93;;
38240;SDS011;24037;49.536;8.500;2023-05-07T10:23:57;1.58;;;1.10;;
38240;SDS011;24037;49.536;8.500;2023-05-07T10:26:36;1.40;;;0.80;;
38240;SDS011;24037;49.536;8.500;2023-05-07T10:29:05;1.73;;;0.73;;
38240;SDS011;24037;49.536;8.500;2023-05-07T10:34:28;1.88;;;1.10;;
38240;SDS011;24037;49.536;8.500;2023-05-07T10:37:01;3.15;;;1.30;;
38240;SDS011;24037;49.536;8.500;2023-05-07T10:39:34;1.75;;;0.93;;
38240;SDS011;24037;49.536;8.500;2023-05-07T10:42:12;2.67;;;1.13;;
38240;SDS011;24037;49.536;8.500;2023-05-07T10:44:45;2.03;;;1.10;;
38240;SDS011;24037;49.536;8.500;2023-05-07T10:47:19;1.23;;;0.80;;
38240;SDS011;24037;49.536;8.500;2023-05-07T10:52:21;1.90;;;1.20;;
38240;SDS011;24037;49.536;8.500;2023-05-07T10:57:57;2.20;;;1.33;;
38240;SDS011;24037;49.536;8.500;2023-05-07T11:00:48;4.05;;;1.20;;
38240;SDS011;24037;49.536;8.500;2023-05-07T11:03:25;1.13;;;0.80;;
38240;SDS011;24037;49.536;8.500;2023-05-07T11:06:13;1.98;;;0.90;;
38240;SDS011;24037;49.536;8.500;2023-05-07T11:11:17;2.28;;;1.17;;
38240;SDS011;24037;49.536;8.500;2023-05-07T11:13:50;3.75;;;0.90;;
38240;SDS011;24037;49.536;8.500;2023-05-07T11:16:33;2.10;;;1.10;;
38240;SDS011;24037;49.536;8.500;2023-05-07T11:19:16;2.42;;;1.20;;
38240;SDS011;24037;49.536;8.500;2023-05-07T11:21:47;3.83;;;1.35;;
38240;SDS011;24037;49.536;8.500;2023-05-07T11:24:40;1.98;;;1.05;;
38240;SDS011;24037;49.536;8.500;2023-05-07T11:27:09;1.67;;;1.02;;
38240;SDS011;24037;49.536;8.500;2023-05-07T11:29:36;1.75;;;0.90;;
38240;SDS011;24037;49.536;8.500;2023-05-07T11:32:07;2.10;;;0.82;;
38240;SDS011;24037;49.536;8.500;2023-05-07T11:34:52;2.25;;;0.90;;
38240;SDS011;24037;49.536;8.500;2023-05-07T11:37:24;2.65;;;1.08;;
38240;SDS011;24037;49.536;8.500;2023-05-07T11:40:03;2.08;;;1.20;;
38240;SDS011;24037;49.536;8.500;2023-05-07T11:42:35;1.83;;;1.10;;
38240;SDS011;24037;49.536;8.500;2023-05-07T11:45:05;1.67;;;1.40;;
38240;SDS011;24037;49.536;8.500;2023-05-07T11:47:33;1.38;;;1.15;;
38240;SDS011;24037;49.536;8.500;2023-05-07T11:50:03;1.10;;;0.85;;
38240;SDS011;24037;49.536;8.500;2023-05-07T11:52:31;3.58;;;1.13;;
38240;SDS011;24037;49.536;8.500;2023-05-07T11:54:58;2.53;;;1.05;;
38240;SDS011;24037;49.536;8.500;2023-05-07T11:57:29;1.65;;;1.10;;
38240;SDS011;24037;49.536;8.500;2023-05-07T11:59:55;2.05;;;1.05;;
38240;SDS011;24037;49.536;8.500;2023-05-07T12:02:25;1.00;;;0.70;;
38240;SDS011;24037;49.536;8.500;2023-05-07T12:04:51;3.20;;;1.10;;
38240;SDS011;24037;49.536;8.500;2023-05-07T12:07:18;1.98;;;0.93;;
38240;SDS011;24037;49.536;8.500;2023-05-07T12:09:44;4.28;;;1.20;;
38240;SDS011;24037;49.536;8.500;2023-05-07T12:12:11;4.95;;;0.93;;
38240;SDS011;24037;49.536;8.500;2023-05-07T12:14:40;2.10;;;1.27;;
38240;SDS011;24037;49.536;8.500;2023-05-07T12:17:07;1.38;;;0.80;;
38240;SDS011;24037;49.536;8.500;2023-05-07T12:19:35;2.45;;;1.08;;
38240;SDS011;24037;49.536;8.500;2023-05-07T12:22:02;2.30;;;0.93;;
38240;SDS011;24037;49.536;8.500;2023-05-07T12:24:30;2.60;;;1.00;;
38240;SDS011;24037;49.536;8.500;2023-05-07T12:27:15;1.95;;;0.90;;
38240;SDS011;24037;49.536;8.500;2023-05-07T12:29:49;1.42;;;1.05;;
38240;SDS011;24037;49.536;8.500;2023-05-07T12:32:16;1.17;;;1.00;;
38240;SDS011;24037;49.536;8.500;2023-05-07T12:34:44;1.63;;;1.00;;
38240;SDS011;24037;49.536;8.500;2023-05-07T12:37:11;2.45;;;0.90;;
38240;SDS011;24037;49.536;8.500;2023-05-07T12:39:38;2.35;;;0.93;;
38240;SDS011;24037;49.536;8.500;2023-05-07T12:42:11;1.25;;;0.88;;
38240;SDS011;24037;49.536;8.500;2023-05-07T12:44:51;3.75;;;1.13;;
38240;SDS011;24037;49.536;8.500;2023-05-07T12:47:17;1.42;;;0.73;;
38240;SDS011;24037;49.536;8.500;2023-05-07T12:49:44;2.50;;;0.98;;
38240;SDS011;24037;49.536;8.500;2023-05-07T12:52:11;3.50;;;0.82;;
38240;SDS011;24037;49.536;8.500;2023-05-07T12:54:38;2.05;;;1.02;;
38240;SDS011;24037;49.536;8.500;2023-05-07T12:57:06;2.22;;;0.77;;
38240;SDS011;24037;49.536;8.500;2023-05-07T12:59:37;4.07;;;1.02;;
38240;SDS011;24037;49.536;8.500;2023-05-07T13:02:07;1.60;;;0.70;;
38240;SDS011;24037;49.536;8.500;2023-05-07T13:04:35;1.40;;;0.95;;
38240;SDS011;24037;49.536;8.500;2023-05-07T13:07:01;4.43;;;1.23;;
38240;SDS011;24037;49.536;8.500;2023-05-07T13:09:28;1.63;;;0.70;;
38240;SDS011;24037;49.536;8.500;2023-05-07T13:11:55;5.93;;;1.40;;
38240;SDS011;24037;49.536;8.500;2023-05-07T13:14:21;2.67;;;1.00;;
38240;SDS011;24037;49.536;8.500;2023-05-07T13:16:47;1.85;;;0.80;;
38240;SDS011;24037;49.536;8.500;2023-05-07T13:19:13;1.30;;;1.20;;
38240;SDS011;24037;49.536;8.500;2023-05-07T13:21:40;1.23;;;0.77;;
38240;SDS011;24037;49.536;8.500;2023-05-07T13:24:06;2.10;;;1.10;;
38240;SDS011;24037;49.536;8.500;2023-05-07T13:26:32;1.75;;;0.80;;
38240;SDS011;24037;49.536;8.500;2023-05-07T13:28:58;1.13;;;0.73;;
38240;SDS011;24037;49.536;8.500;2023-05-07T13:31:25;1.40;;;0.73;;
38240;SDS011;24037;49.536;8.500;2023-05-07T13:33:51;1.83;;;0.75;;
38240;SDS011;24037;49.536;8.500;2023-05-07T13:36:18;1.23;;;0.90;;
38240;SDS011;24037;49.536;8.500;2023-05-07T13:38:44;3.05;;;0.93;;
38240;SDS011;24037;49.536;8.500;2023-05-07T13:41:11;1.30;;;0.95;;
38240;SDS011;24037;49.536;8.500;2023-05-07T13:43:38;2.22;;;0.80;;
38240;SDS011;24037;49.536;8.500;2023-05-07T13:46:04;2.58;;;1.13;;
38240;SDS011;24037;49.536;8.500;2023-05-07T13:48:34;2.38;;;0.80;;
38240;SDS011;24037;49.536;8.500;2023-05-07T13:51:00;2.92;;;1.30;;
38240;SDS011;24037;49.536;8.500;2023-05-07T13:53:26;3.42;;;1.60;;
38240;SDS011;24037;49.536;8.500;2023-05-07T13:55:52;3.17;;;1.25;;
38240;SDS011;24037;49.536;8.500;2023-05-07T13:58:18;1.38;;;0.95;;
38240;SDS011;24037;49.536;8.500;2023-05-07T14:00:44;4.25;;;1.38;;
38240;SDS011;24037;49.536;8.500;2023-05-07T14:03:11;1.95;;;1.25;;
38240;SDS011;24037;49.536;8.500;2023-05-07T14:05:37;3.05;;;1.67;;
38240;SDS011;24037;49.536;8.500;2023-05-07T14:08:03;5.68;;;1.88;;
38240;SDS011;24037;49.536;8.500;2023-05-07T14:10:30;4.85;;;2.60;;
38240;SDS011;24037;49.536;8.500;2023-05-07T14:12:57;10.57;;;2.92;;
38240;SDS011;24037;49.536;8.500;2023-05-07T14:15:23;9.38;;;3.22;;
38240;SDS011;24037;49.536;8.500;2023-05-07T14:17:49;5.72;;;2.13;;
38240;SDS011;24037;49.536;8.500;2023-05-07T14:20:15;5.97;;;2.60;;
38240;SDS011;24037;49.536;8.500;2023-05-07T14:22:42;3.58;;;2.42;;
38240;SDS011;24037;49.536;8.500;2023-05-07T14:25:08;12.52;;;7.35;;
38240;SDS011;24037;49.536;8.500;2023-05-07T14:27:38;8.85;;;3.72;;
38240;SDS011;24037;49.536;8.500;2023-05-07T14:30:04;6.75;;;4.68;;
38240;SDS011;24037;49.536;8.500;2023-05-07T14:32:32;9.93;;;4.75;;
38240;SDS011;24037;49.536;8.500;2023-05-07T14:34:58;9.23;;;5.28;;
38240;SDS011;24037;49.536;8.500;2023-05-07T14:37:24;8.77;;;4.90;;
38240;SDS011;24037;49.536;8.500;2023-05-07T14:39:50;8.82;;;4.00;;
38240;SDS011;24037;49.536;8.500;2023-05-07T14:42:17;4.20;;;2.10;;
38240;SDS011;24037;49.536;8.500;2023-05-07T14:44:43;2.95;;;1.23;;
38240;SDS011;24037;49.536;8.500;2023-05-07T14:47:10;1.75;;;1.30;;
38240;SDS011;24037;49.536;8.500;2023-05-07T14:49:37;1.88;;;1.15;;
38240;SDS011;24037;49.536;8.500;2023-05-07T14:52:04;4.05;;;1.45;;
38240;SDS011;24037;49.536;8.500;2023-05-07T14:54:33;5.30;;;1.80;;
38240;SDS011;24037;49.536;8.500;2023-05-07T14:57:01;1.27;;;0.68;;
38240;SDS011;24037;49.536;8.500;2023-05-07T14:59:27;2.20;;;1.30;;
38240;SDS011;24037;49.536;8.500;2023-05-07T15:01:53;4.95;;;1.88;;
38240;SDS011;24037;49.536;8.500;2023-05-07T15:04:20;6.65;;;2.38;;
38240;SDS011;24037;49.536;8.500;2023-05-07T15:06:46;5.50;;;3.03;;
38240;SDS011;24037;49.536;8.500;2023-05-07T15:09:12;6.68;;;4.50;;
38240;SDS011;24037;49.536;8.500;2023-05-07T15:11:39;11.57;;;5.15;;